sensor_id;sensor_type;location;lat;lon;timestamp;temperature;humidity
13960;DHT22;7052;51.050;3.716;2023-04-21T00:02:06;7.40;99.90
13960;DHT22;7052;51.050;3.716;2023-04-21T00:04:33;7.40;99.90
13960;DHT22;7052;51.050;3.716;2023-04-21T00:07:00;7.40;99.90
13960;DHT22;7052;51.050;3.716;2023-04-21T00:09:28;7.40;99.90
13960;DHT22;7052;51.050;3.716;2023-04-21T00:11:58;7.40;99.90
13960;DHT22;7052;51.050;3.716;2023-04-21T00:14:26;7.30;99.90
13960;DHT22;7052;51.050;3.716;2023-04-21T00:16:53;7.30;99.90
13960;DHT22;7052;51.050;3.716;2023-04-21T00:19:20;7.30;99.90
13960;DHT22;7052;51.050;3.716;2023-04-21T00:21:49;7.40;99.90
13960;DHT22;7052;51.050;3.716;2023-04-21T00:24:17;7.30;99.90
13960;DHT22;7052;51.050;3.716;2023-04-21T00:26:44;7.30;99.90
13960;DHT22;7052;51.050;3.716;2023-04-21T00:29:31;7.30;99.90
13960;DHT22;7052;51.050;3.716;2023-04-21T00:32:09;7.30;99.90
13960;DHT22;7052;51.050;3.716;2023-04-21T00:34:36;7.30;99.90
13960;DHT22;7052;51.050;3.716;2023-04-21T00:37:03;7.30;99.90
13960;DHT22;7052;51.050;3.716;2023-04-21T00:39:30;7.30;99.90
13960;DHT22;7052;51.050;3.716;2023-04-21T00:41:58;7.30;99.90
13960;DHT22;7052;51.050;3.716;2023-04-21T00:44:29;7.30;99.90
13960;DHT22;7052;51.050;3.716;2023-04-21T00:46:55;7.30;99.90
13960;DHT22;7052;51.050;3.716;2023-04-21T00:49:23;7.30;99.90
13960;DHT22;7052;51.050;3.716;2023-04-21T00:51:51;7.30;99.90
13960;DHT22;7052;51.050;3.716;2023-04-21T00:54:23;7.30;99.90
13960;DHT22;7052;51.050;3.716;2023-04-21T00:56:51;7.40;99.90
13960;DHT22;7052;51.050;3.716;2023-04-21T00:59:20;7.30;99.90
13960;DHT22;7052;51.050;3.716;2023-04-21T01:01:50;7.40;99.90
13960;DHT22;7052;51.050;3.716;2023-04-21T01:04:19;7.40;99.90
13960;DHT22;7052;51.050;3.716;2023-04-21T01:06:46;7.40;99.90
13960;DHT22;7052;51.050;3.716;2023-04-21T01:09:13;7.50;99.90
13960;DHT22;7052;51.050;3.716;2023-04-21T01:11:40;7.40;99.90
13960;DHT22;7052;51.050;3.716;2023-04-21T01:14:07;7.50;99.90
13960;DHT22;7052;51.050;3.716;2023-04-21T01:16:34;7.50;99.90
13960;DHT22;7052;51.050;3.716;2023-04-21T01:19:04;7.50;99.90
13960;DHT22;7052;51.050;3.716;2023-04-21T01:21:38;7.50;99.90
13960;DHT22;7052;51.050;3.716;2023-04-21T01:24:08;7.60;99.90
13960;DHT22;7052;51.050;3.716;2023-04-21T01:26:43;7.50;99.90
13960;DHT22;7052;51.050;3.716;2023-04-21T01:29:14;7.60;99.90
13960;DHT22;7052;51.050;3.716;2023-04-21T01:31:41;7.60;99.90
13960;DHT22;7052;51.050;3.716;2023-04-21T01:34:10;7.70;99.90
13960;DHT22;7052;51.050;3.716;2023-04-21T01:36:43;7.70;99.90
13960;DHT22;7052;51.050;3.716;2023-04-21T01:39:10;7.70;99.90
13960;DHT22;7052;51.050;3.716;2023-04-21T01:41:37;7.70;99.90
13960;DHT22;7052;51.050;3.716;2023-04-21T01:44:04;7.70;99.90
13960;DHT22;7052;51.050;3.716;2023-04-21T01:46:31;7.80;99.90
13960;DHT22;7052;51.050;3.716;2023-04-21T01:48:58;7.80;99.90
13960;DHT22;7052;51.050;3.716;2023-04-21T01:51:25;7.80;99.90
13960;DHT22;7052;51.050;3.716;2023-04-21T01:54:00;7.80;99.90
13960;DHT22;7052;51.050;3.716;2023-04-21T01:56:27;7.80;99.90
13960;DHT22;7052;51.050;3.716;2023-04-21T01:58:54;7.80;99.90
13960;DHT22;7052;51.050;3.716;2023-04-21T02:01:22;7.80;99.90
13960;DHT22;7052;51.050;3.716;2023-04-21T02:03:49;7.80;99.90
13960;DHT22;7052;51.050;3.716;2023-04-21T02:06:16;7.80;99.90
13960;DHT22;7052;51.050;3.716;2023-04-21T02:08:43;7.90;99.90
13960;DHT22;7052;51.050;3.716;2023-04-21T02:11:14;7.90;99.90
13960;DHT22;7052;51.050;3.716;2023-04-21T02:13:43;7.90;99.90
13960;DHT22;7052;51.050;3.716;2023-04-21T02:16:11;7.90;99.90
13960;DHT22;7052;51.050;3.716;2023-04-21T02:18:38;7.80;99.90
13960;DHT22;7052;51.050;3.716;2023-04-21T02:21:09;7.80;99.90
13960;DHT22;7052;51.050;3.716;2023-04-21T02:23:36;7.80;99.90
13960;DHT22;7052;51.050;3.716;2023-04-21T02:26:04;7.80;99.90
13960;DHT22;7052;51.050;3.716;2023-04-21T02:28:32;7.70;99.90
13960;DHT22;7052;51.050;3.716;2023-04-21T02:31:01;7.70;99.90
13960;DHT22;7052;51.050;3.716;2023-04-21T02:33:28;7.70;99.90
13960;DHT22;7052;51.050;3.716;2023-04-21T02:35:56;7.70;99.90
13960;DHT22;7052;51.050;3.716;2023-04-21T02:38:32;7.70;99.90
13960;DHT22;7052;51.050;3.716;2023-04-21T02:41:00;7.70;99.90
13960;DHT22;7052;51.050;3.716;2023-04-21T02:43:30;7.70;99.90
13960;DHT22;7052;51.050;3.716;2023-04-21T02:46:07;7.70;99.90
13960;DHT22;7052;51.050;3.716;2023-04-21T02:48:35;7.70;99.90
13960;DHT22;7052;51.050;3.716;2023-04-21T02:51:03;7.70;99.90
13960;DHT22;7052;51.050;3.716;2023-04-21T02:53:31;7.60;99.90
13960;DHT22;7052;51.050;3.716;2023-04-21T02:55:58;7.70;99.90
13960;DHT22;7052;51.050;3.716;2023-04-21T02:58:29;7.70;99.90
13960;DHT22;7052;51.050;3.716;2023-04-21T03:00:59;7.70;99.90
13960;DHT22;7052;51.050;3.716;2023-04-21T03:03:28;7.70;99.90
13960;DHT22;7052;51.050;3.716;2023-04-21T03:05:58;7.70;99.90
13960;DHT22;7052;51.050;3.716;2023-04-21T03:08:27;7.70;99.90
13960;DHT22;7052;51.050;3.716;2023-04-21T03:10:54;7.70;99.90
13960;DHT22;7052;51.050;3.716;2023-04-21T03:13:22;7.70;99.90
13960;DHT22;7052;51.050;3.716;2023-04-21T03:15:50;7.70;99.90
13960;DHT22;7052;51.050;3.716;2023-04-21T03:18:18;7.90;99.90
13960;DHT22;7052;51.050;3.716;2023-04-21T03:20:47;7.70;99.90
13960;DHT22;7052;51.050;3.716;2023-04-21T03:23:14;7.70;99.90
13960;DHT22;7052;51.050;3.716;2023-04-21T03:25:41;7.70;99.90
13960;DHT22;7052;51.050;3.716;2023-04-21T03:28:09;7.70;99.90
13960;DHT22;7052;51.050;3.716;2023-04-21T03:30:38;7.70;99.90
13960;DHT22;7052;51.050;3.716;2023-04-21T03:33:05;7.70;99.90
13960;DHT22;7052;51.050;3.716;2023-04-21T03:35:32;7.70;99.90
13960;DHT22;7052;51.050;3.716;2023-04-21T03:38:01;7.70;99.90
13960;DHT22;7052;51.050;3.716;2023-04-21T03:40:32;7.60;99.90
13960;DHT22;7052;51.050;3.716;2023-04-21T03:42:59;7.60;99.90
13960;DHT22;7052;51.050;3.716;2023-04-21T03:45:27;7.60;99.90
13960;DHT22;7052;51.050;3.716;2023-04-21T03:47:56;7.60;99.90
13960;DHT22;7052;51.050;3.716;2023-04-21T03:50:23;7.60;99.90
13960;DHT22;7052;51.050;3.716;2023-04-21T03:52:52;7.60;99.90
13960;DHT22;7052;51.050;3.716;2023-04-21T03:55:24;7.60;99.90
13960;DHT22;7052;51.050;3.716;2023-04-21T03:57:53;7.60;99.90
13960;DHT22;7052;51.050;3.716;2023-04-21T04:00:20;7.60;99.90
13960;DHT22;7052;51.050;3.716;2023-04-21T04:02:47;7.50;99.90
13960;DHT22;7052;51.050;3.716;2023-04-21T04:05:15;7.50;99.90
13960;DHT22;7052;51.050;3.716;2023-04-21T04:07:42;7.60;99.90
13960;DHT22;7052;51.050;3.716;2023-04-21T04:10:09;7.50;99.90
13960;DHT22;7052;51.050;3.716;2023-04-21T04:12:38;7.50;99.90
13960;DHT22;7052;51.050;3.716;2023-04-21T04:15:06;7.50;99.90
13960;DHT22;7052;51.050;3.716;2023-04-21T04:17:37;7.50;99.90
13960;DHT22;7052;51.050;3.716;2023-04-21T04:20:06;7.50;99.90
13960;DHT22;7052;51.050;3.716;2023-04-21T04:22:36;7.50;99.90
13960;DHT22;7052;51.050;3.716;2023-04-21T04:25:03;7.50;99.90
13960;DHT22;7052;51.050;3.716;2023-04-21T04:27:33;7.40;99.90
13960;DHT22;7052;51.050;3.716;2023-04-21T04:30:07;7.40;99.90
13960;DHT22;7052;51.050;3.716;2023-04-21T04:32:38;7.40;99.90
13960;DHT22;7052;51.050;3.716;2023-04-21T04:35:06;7.40;99.90
13960;DHT22;7052;51.050;3.716;2023-04-21T04:37:35;7.30;99.90
13960;DHT22;7052;51.050;3.716;2023-04-21T04:40:04;7.30;99.90
13960;DHT22;7052;51.050;3.716;2023-04-21T04:42:34;7.30;99.90
13960;DHT22;7052;51.050;3.716;2023-04-21T04:45:07;7.30;99.90
13960;DHT22;7052;51.050;3.716;2023-04-21T04:47:35;7.30;99.90
13960;DHT22;7052;51.050;3.716;2023-04-21T04:50:03;7.20;99.90
13960;DHT22;7052;51.050;3.716;2023-04-21T04:52:30;7.20;99.90
13960;DHT22;7052;51.050;3.716;2023-04-21T04:54:58;7.20;99.90
13960;DHT22;7052;51.050;3.716;2023-04-21T04:57:30;7.20;99.90
13960;DHT22;7052;51.050;3.716;2023-04-21T04:59:57;7.20;99.90
13960;DHT22;7052;51.050;3.716;2023-04-21T05:02:25;7.20;99.90
13960;DHT22;7052;51.050;3.716;2023-04-21T05:04:52;7.20;99.90
13960;DHT22;7052;51.050;3.716;2023-04-21T05:07:19;7.20;99.90
13960;DHT22;7052;51.050;3.716;2023-04-21T05:09:47;7.20;99.90
13960;DHT22;7052;51.050;3.716;2023-04-21T05:12:14;7.10;99.90
13960;DHT22;7052;51.050;3.716;2023-04-21T05:14:42;7.10;99.90
13960;DHT22;7052;51.050;3.716;2023-04-21T05:17:10;7.10;99.90
13960;DHT22;7052;51.050;3.716;2023-04-21T05:19:39;7.10;99.90
13960;DHT22;7052;51.050;3.716;2023-04-21T05:22:06;7.10;99.90
13960;DHT22;7052;51.050;3.716;2023-04-21T05:24:34;7.30;99.90
13960;DHT22;7052;51.050;3.716;2023-04-21T05:27:02;7.30;99.90
13960;DHT22;7052;51.050;3.716;2023-04-21T05:29:31;7.30;99.90
13960;DHT22;7052;51.050;3.716;2023-04-21T05:31:58;7.30;99.90
13960;DHT22;7052;51.050;3.716;2023-04-21T05:34:25;7.30;99.90
13960;DHT22;7052;51.050;3.716;2023-04-21T05:36:54;7.40;99.90
13960;DHT22;7052;51.050;3.716;2023-04-21T05:39:21;7.40;99.90
13960;DHT22;7052;51.050;3.716;2023-04-21T05:41:50;7.40;99.90
13960;DHT22;7052;51.050;3.716;2023-04-21T05:44:17;7.40;99.90
13960;DHT22;7052;51.050;3.716;2023-04-21T05:46:46;7.40;99.90
13960;DHT22;7052;51.050;3.716;2023-04-21T05:49:21;7.50;99.90
13960;DHT22;7052;51.050;3.716;2023-04-21T05:51:53;7.50;99.90
13960;DHT22;7052;51.050;3.716;2023-04-21T05:54:20;7.50;99.90
13960;DHT22;7052;51.050;3.716;2023-04-21T05:56:48;7.50;99.90
13960;DHT22;7052;51.050;3.716;2023-04-21T05:59:16;7.60;99.90
13960;DHT22;7052;51.050;3.716;2023-04-21T06:01:44;7.60;99.90
13960;DHT22;7052;51.050;3.716;2023-04-21T06:04:11;7.60;99.90
13960;DHT22;7052;51.050;3.716;2023-04-21T06:06:41;7.60;99.90
13960;DHT22;7052;51.050;3.716;2023-04-21T06:09:12;7.70;99.90
13960;DHT22;7052;51.050;3.716;2023-04-21T06:11:41;7.80;99.90
13960;DHT22;7052;51.050;3.716;2023-04-21T06:14:15;7.80;99.90
13960;DHT22;7052;51.050;3.716;2023-04-21T06:16:42;7.90;99.90
13960;DHT22;7052;51.050;3.716;2023-04-21T06:19:09;7.90;99.90
13960;DHT22;7052;51.050;3.716;2023-04-21T06:21:37;7.90;99.90
13960;DHT22;7052;51.050;3.716;2023-04-21T06:24:06;7.90;99.90
13960;DHT22;7052;51.050;3.716;2023-04-21T06:26:35;7.90;99.90
13960;DHT22;7052;51.050;3.716;2023-04-21T06:29:02;8.00;99.90
13960;DHT22;7052;51.050;3.716;2023-04-21T06:31:30;7.90;99.90
13960;DHT22;7052;51.050;3.716;2023-04-21T06:33:57;8.00;99.90
13960;DHT22;7052;51.050;3.716;2023-04-21T06:36:25;8.10;99.90
13960;DHT22;7052;51.050;3.716;2023-04-21T06:38:54;8.10;99.90
13960;DHT22;7052;51.050;3.716;2023-04-21T06:41:21;8.10;99.90
13960;DHT22;7052;51.050;3.716;2023-04-21T06:43:50;8.10;99.90
13960;DHT22;7052;51.050;3.716;2023-04-21T06:46:17;8.10;99.90
13960;DHT22;7052;51.050;3.716;2023-04-21T06:48:48;8.30;99.90
13960;DHT22;7052;51.050;3.716;2023-04-21T06:51:16;8.50;99.90
13960;DHT22;7052;51.050;3.716;2023-04-21T06:53:45;8.60;99.90
13960;DHT22;7052;51.050;3.716;2023-04-21T06:56:12;8.60;99.90
13960;DHT22;7052;51.050;3.716;2023-04-21T06:58:41;8.70;99.90
13960;DHT22;7052;51.050;3.716;2023-04-21T07:01:10;8.70;99.90
13960;DHT22;7052;51.050;3.716;2023-04-21T07:03:40;8.70;99.90
13960;DHT22;7052;51.050;3.716;2023-04-21T07:06:08;8.70;99.90
13960;DHT22;7052;51.050;3.716;2023-04-21T07:08:38;8.80;99.90
13960;DHT22;7052;51.050;3.716;2023-04-21T07:11:06;8.90;99.90
13960;DHT22;7052;51.050;3.716;2023-04-21T07:13:33;9.00;99.90
13960;DHT22;7052;51.050;3.716;2023-04-21T07:16:00;9.20;99.90
13960;DHT22;7052;51.050;3.716;2023-04-21T07:18:31;9.30;99.90
13960;DHT22;7052;51.050;3.716;2023-04-21T07:20:59;9.60;99.90
13960;DHT22;7052;51.050;3.716;2023-04-21T07:23:27;9.80;99.90
13960;DHT22;7052;51.050;3.716;2023-04-21T07:25:54;9.90;99.90
13960;DHT22;7052;51.050;3.716;2023-04-21T07:28:22;10.10;99.90
13960;DHT22;7052;51.050;3.716;2023-04-21T07:30:51;10.10;99.90
13960;DHT22;7052;51.050;3.716;2023-04-21T07:33:19;10.20;99.90
13960;DHT22;7052;51.050;3.716;2023-04-21T07:35:52;10.30;99.90
13960;DHT22;7052;51.050;3.716;2023-04-21T07:38:20;10.30;99.90
13960;DHT22;7052;51.050;3.716;2023-04-21T07:40:47;10.40;99.90
13960;DHT22;7052;51.050;3.716;2023-04-21T07:43:14;10.60;99.90
13960;DHT22;7052;51.050;3.716;2023-04-21T07:45:41;10.80;99.90
13960;DHT22;7052;51.050;3.716;2023-04-21T07:48:09;10.80;99.90
13960;DHT22;7052;51.050;3.716;2023-04-21T07:50:36;10.80;99.90
13960;DHT22;7052;51.050;3.716;2023-04-21T07:53:06;10.80;99.90
13960;DHT22;7052;51.050;3.716;2023-04-21T07:55:36;10.90;99.90
13960;DHT22;7052;51.050;3.716;2023-04-21T07:58:03;10.90;99.90
13960;DHT22;7052;51.050;3.716;2023-04-21T08:00:31;10.90;99.90
13960;DHT22;7052;51.050;3.716;2023-04-21T08:03:01;10.80;99.90
13960;DHT22;7052;51.050;3.716;2023-04-21T08:05:28;10.80;99.90
13960;DHT22;7052;51.050;3.716;2023-04-21T08:08:05;10.90;99.90
13960;DHT22;7052;51.050;3.716;2023-04-21T08:10:33;10.80;99.90
13960;DHT22;7052;51.050;3.716;2023-04-21T08:13:00;10.90;99.90
13960;DHT22;7052;51.050;3.716;2023-04-21T08:15:35;10.90;99.90
13960;DHT22;7052;51.050;3.716;2023-04-21T08:18:02;10.90;99.90
13960;DHT22;7052;51.050;3.716;2023-04-21T08:20:31;10.90;99.90
13960;DHT22;7052;51.050;3.716;2023-04-21T08:22:59;10.90;99.90
13960;DHT22;7052;51.050;3.716;2023-04-21T08:25:29;10.90;99.90
13960;DHT22;7052;51.050;3.716;2023-04-21T08:28:02;11.10;99.90
13960;DHT22;7052;51.050;3.716;2023-04-21T08:30:29;11.20;99.90
13960;DHT22;7052;51.050;3.716;2023-04-21T08:32:57;11.30;99.90
13960;DHT22;7052;51.050;3.716;2023-04-21T08:35:25;11.40;99.90
13960;DHT22;7052;51.050;3.716;2023-04-21T08:37:52;11.50;99.90
13960;DHT22;7052;51.050;3.716;2023-04-21T08:40:32;11.60;99.90
13960;DHT22;7052;51.050;3.716;2023-04-21T08:43:00;11.70;99.90
13960;DHT22;7052;51.050;3.716;2023-04-21T08:45:28;11.80;99.90
13960;DHT22;7052;51.050;3.716;2023-04-21T08:47:58;11.80;99.90
13960;DHT22;7052;51.050;3.716;2023-04-21T08:50:28;11.80;99.90
13960;DHT22;7052;51.050;3.716;2023-04-21T08:52:55;11.80;99.90
13960;DHT22;7052;51.050;3.716;2023-04-21T08:55:25;11.80;99.90
13960;DHT22;7052;51.050;3.716;2023-04-21T08:57:56;11.90;99.90
13960;DHT22;7052;51.050;3.716;2023-04-21T09:00:24;12.10;99.90
13960;DHT22;7052;51.050;3.716;2023-04-21T09:02:54;12.30;99.90
13960;DHT22;7052;51.050;3.716;2023-04-21T09:05:23;12.40;99.80
13960;DHT22;7052;51.050;3.716;2023-04-21T09:07:52;12.40;99.60
13960;DHT22;7052;51.050;3.716;2023-04-21T09:10:24;12.50;99.10
13960;DHT22;7052;51.050;3.716;2023-04-21T09:12:53;12.50;99.10
13960;DHT22;7052;51.050;3.716;2023-04-21T09:15:22;12.60;98.90
13960;DHT22;7052;51.050;3.716;2023-04-21T09:17:54;12.70;97.20
13960;DHT22;7052;51.050;3.716;2023-04-21T09:20:26;12.80;97.00
13960;DHT22;7052;51.050;3.716;2023-04-21T09:22:53;12.90;97.10
13960;DHT22;7052;51.050;3.716;2023-04-21T09:25:21;13.00;95.40
13960;DHT22;7052;51.050;3.716;2023-04-21T09:28:07;13.00;94.80
13960;DHT22;7052;51.050;3.716;2023-04-21T09:30:40;13.00;95.20
13960;DHT22;7052;51.050;3.716;2023-04-21T09:33:14;13.00;95.10
13960;DHT22;7052;51.050;3.716;2023-04-21T09:35:47;13.10;95.10
13960;DHT22;7052;51.050;3.716;2023-04-21T09:38:15;13.10;95.10
13960;DHT22;7052;51.050;3.716;2023-04-21T09:40:42;13.20;94.90
13960;DHT22;7052;51.050;3.716;2023-04-21T09:43:12;13.30;93.90
13960;DHT22;7052;51.050;3.716;2023-04-21T09:45:41;13.40;93.00
13960;DHT22;7052;51.050;3.716;2023-04-21T09:48:09;13.50;92.60
13960;DHT22;7052;51.050;3.716;2023-04-21T09:50:42;13.50;91.90
13960;DHT22;7052;51.050;3.716;2023-04-21T09:53:13;13.50;91.70
13960;DHT22;7052;51.050;3.716;2023-04-21T09:55:46;13.60;91.90
13960;DHT22;7052;51.050;3.716;2023-04-21T09:58:15;13.60;91.30
13960;DHT22;7052;51.050;3.716;2023-04-21T10:00:46;13.60;91.30
13960;DHT22;7052;51.050;3.716;2023-04-21T10:03:15;13.80;90.30
13960;DHT22;7052;51.050;3.716;2023-04-21T10:05:44;13.80;89.20
13960;DHT22;7052;51.050;3.716;2023-04-21T10:08:13;13.90;86.60
13960;DHT22;7052;51.050;3.716;2023-04-21T10:10:41;14.10;86.60
13960;DHT22;7052;51.050;3.716;2023-04-21T10:13:12;14.10;84.60
13960;DHT22;7052;51.050;3.716;2023-04-21T10:15:47;14.20;81.10
13960;DHT22;7052;51.050;3.716;2023-04-21T10:18:18;14.20;78.80
13960;DHT22;7052;51.050;3.716;2023-04-21T10:20:55;14.30;71.80
13960;DHT22;7052;51.050;3.716;2023-04-21T10:23:30;14.40;72.90
13960;DHT22;7052;51.050;3.716;2023-04-21T10:26:09;14.40;72.40
13960;DHT22;7052;51.050;3.716;2023-04-21T10:28:51;14.50;70.50
13960;DHT22;7052;51.050;3.716;2023-04-21T10:31:35;14.60;68.30
13960;DHT22;7052;51.050;3.716;2023-04-21T10:34:21;14.70;69.70
13960;DHT22;7052;51.050;3.716;2023-04-21T10:37:11;14.80;69.90
13960;DHT22;7052;51.050;3.716;2023-04-21T10:39:58;14.90;68.60
13960;DHT22;7052;51.050;3.716;2023-04-21T10:42:34;15.10;64.40
13960;DHT22;7052;51.050;3.716;2023-04-21T10:45:14;15.10;64.40
13960;DHT22;7052;51.050;3.716;2023-04-21T10:50:38;15.20;65.70
13960;DHT22;7052;51.050;3.716;2023-04-21T10:53:10;15.50;57.60
13960;DHT22;7052;51.050;3.716;2023-04-21T10:55:37;15.50;55.10
13960;DHT22;7052;51.050;3.716;2023-04-21T10:58:10;15.50;54.90
13960;DHT22;7052;51.050;3.716;2023-04-21T11:00:38;15.60;55.70
13960;DHT22;7052;51.050;3.716;2023-04-21T11:03:06;15.70;55.40
13960;DHT22;7052;51.050;3.716;2023-04-21T11:05:39;15.70;55.90
13960;DHT22;7052;51.050;3.716;2023-04-21T11:08:11;15.80;55.20
13960;DHT22;7052;51.050;3.716;2023-04-21T11:10:44;15.90;55.60
13960;DHT22;7052;51.050;3.716;2023-04-21T11:13:19;16.00;56.00
13960;DHT22;7052;51.050;3.716;2023-04-21T11:16:09;16.10;55.50
13960;DHT22;7052;51.050;3.716;2023-04-21T11:18:41;16.10;54.20
13960;DHT22;7052;51.050;3.716;2023-04-21T11:21:12;16.20;54.10
13960;DHT22;7052;51.050;3.716;2023-04-21T11:23:53;16.30;54.20
13960;DHT22;7052;51.050;3.716;2023-04-21T11:26:34;16.50;53.10
13960;DHT22;7052;51.050;3.716;2023-04-21T11:29:04;16.60;51.30
13960;DHT22;7052;51.050;3.716;2023-04-21T11:31:41;16.60;51.60
13960;DHT22;7052;51.050;3.716;2023-04-21T11:34:10;16.80;50.30
13960;DHT22;7052;51.050;3.716;2023-04-21T11:36:49;16.80;49.30
13960;DHT22;7052;51.050;3.716;2023-04-21T11:39:19;16.80;49.10
13960;DHT22;7052;51.050;3.716;2023-04-21T11:41:48;16.90;49.20
13960;DHT22;7052;51.050;3.716;2023-04-21T11:44:30;16.90;49.50
13960;DHT22;7052;51.050;3.716;2023-04-21T11:47:11;17.00;49.50
13960;DHT22;7052;51.050;3.716;2023-04-21T11:49:43;17.10;48.10
13960;DHT22;7052;51.050;3.716;2023-04-21T11:52:23;17.10;47.90
13960;DHT22;7052;51.050;3.716;2023-04-21T11:54:59;17.20;47.10
13960;DHT22;7052;51.050;3.716;2023-04-21T11:57:27;17.20;46.60
13960;DHT22;7052;51.050;3.716;2023-04-21T11:59:57;17.30;46.70
13960;DHT22;7052;51.050;3.716;2023-04-21T12:02:27;17.40;47.10
13960;DHT22;7052;51.050;3.716;2023-04-21T12:04:59;17.50;46.40
13960;DHT22;7052;51.050;3.716;2023-04-21T12:07:30;17.60;45.90
13960;DHT22;7052;51.050;3.716;2023-04-21T12:10:00;17.60;46.20
13960;DHT22;7052;51.050;3.716;2023-04-21T12:12:28;17.70;46.20
13960;DHT22;7052;51.050;3.716;2023-04-21T12:14:56;17.70;45.90
13960;DHT22;7052;51.050;3.716;2023-04-21T12:17:23;17.60;46.00
13960;DHT22;7052;51.050;3.716;2023-04-21T12:19:50;17.60;45.20
13960;DHT22;7052;51.050;3.716;2023-04-21T12:22:17;17.60;44.50
13960;DHT22;7052;51.050;3.716;2023-04-21T12:24:46;17.50;44.50
13960;DHT22;7052;51.050;3.716;2023-04-21T12:27:15;17.40;44.80
13960;DHT22;7052;51.050;3.716;2023-04-21T12:29:44;17.40;44.40
13960;DHT22;7052;51.050;3.716;2023-04-21T12:32:11;17.40;44.50
13960;DHT22;7052;51.050;3.716;2023-04-21T12:34:38;17.30;43.70
13960;DHT22;7052;51.050;3.716;2023-04-21T12:37:08;17.20;43.60
13960;DHT22;7052;51.050;3.716;2023-04-21T12:39:36;17.30;43.00
13960;DHT22;7052;51.050;3.716;2023-04-21T12:42:13;17.50;42.40
13960;DHT22;7052;51.050;3.716;2023-04-21T12:44:40;17.70;42.10
13960;DHT22;7052;51.050;3.716;2023-04-21T12:47:07;17.80;41.80
13960;DHT22;7052;51.050;3.716;2023-04-21T12:49:35;18.00;41.60
13960;DHT22;7052;51.050;3.716;2023-04-21T12:52:03;18.10;41.30
13960;DHT22;7052;51.050;3.716;2023-04-21T12:54:31;18.30;40.60
13960;DHT22;7052;51.050;3.716;2023-04-21T12:56:59;18.40;40.60
13960;DHT22;7052;51.050;3.716;2023-04-21T12:59:27;18.60;41.10
13960;DHT22;7052;51.050;3.716;2023-04-21T13:01:55;18.70;41.20
13960;DHT22;7052;51.050;3.716;2023-04-21T13:04:23;18.80;42.00
13960;DHT22;7052;51.050;3.716;2023-04-21T13:06:50;19.00;42.10
13960;DHT22;7052;51.050;3.716;2023-04-21T13:09:18;19.00;41.40
13960;DHT22;7052;51.050;3.716;2023-04-21T13:11:45;18.80;42.20
13960;DHT22;7052;51.050;3.716;2023-04-21T13:14:12;18.60;42.00
13960;DHT22;7052;51.050;3.716;2023-04-21T13:16:44;18.60;42.40
13960;DHT22;7052;51.050;3.716;2023-04-21T13:19:11;18.60;41.30
13960;DHT22;7052;51.050;3.716;2023-04-21T13:21:39;18.60;41.20
13960;DHT22;7052;51.050;3.716;2023-04-21T13:24:08;18.70;41.20
13960;DHT22;7052;51.050;3.716;2023-04-21T13:26:36;18.70;40.80
13960;DHT22;7052;51.050;3.716;2023-04-21T13:29:04;18.60;41.20
13960;DHT22;7052;51.050;3.716;2023-04-21T13:31:31;18.60;41.10
13960;DHT22;7052;51.050;3.716;2023-04-21T13:34:03;18.50;41.00
13960;DHT22;7052;51.050;3.716;2023-04-21T13:36:30;18.40;41.30
13960;DHT22;7052;51.050;3.716;2023-04-21T13:38:58;18.30;41.30
13960;DHT22;7052;51.050;3.716;2023-04-21T13:41:26;18.30;41.30
13960;DHT22;7052;51.050;3.716;2023-04-21T13:43:53;18.20;40.90
13960;DHT22;7052;51.050;3.716;2023-04-21T13:46:21;18.20;41.30
13960;DHT22;7052;51.050;3.716;2023-04-21T13:48:48;18.40;40.70
13960;DHT22;7052;51.050;3.716;2023-04-21T13:51:19;18.50;40.70
13960;DHT22;7052;51.050;3.716;2023-04-21T13:53:45;18.60;40.10
13960;DHT22;7052;51.050;3.716;2023-04-21T13:56:13;18.70;40.30
13960;DHT22;7052;51.050;3.716;2023-04-21T13:58:41;18.80;40.20
13960;DHT22;7052;51.050;3.716;2023-04-21T14:01:08;18.90;39.20
13960;DHT22;7052;51.050;3.716;2023-04-21T14:03:35;19.00;39.10
13960;DHT22;7052;51.050;3.716;2023-04-21T14:06:04;19.00;39.40
13960;DHT22;7052;51.050;3.716;2023-04-21T14:08:33;19.10;39.50
13960;DHT22;7052;51.050;3.716;2023-04-21T14:11:01;19.30;39.00
13960;DHT22;7052;51.050;3.716;2023-04-21T14:13:30;19.50;39.00
13960;DHT22;7052;51.050;3.716;2023-04-21T14:16:00;19.50;38.30
13960;DHT22;7052;51.050;3.716;2023-04-21T14:18:27;19.50;38.60
13960;DHT22;7052;51.050;3.716;2023-04-21T14:20:54;19.50;39.00
13960;DHT22;7052;51.050;3.716;2023-04-21T14:23:22;19.60;38.60
13960;DHT22;7052;51.050;3.716;2023-04-21T14:25:53;19.50;38.60
13960;DHT22;7052;51.050;3.716;2023-04-21T14:28:22;19.50;38.30
13960;DHT22;7052;51.050;3.716;2023-04-21T14:30:49;19.40;37.60
13960;DHT22;7052;51.050;3.716;2023-04-21T14:33:17;19.20;37.60
13960;DHT22;7052;51.050;3.716;2023-04-21T14:35:44;19.20;37.80
13960;DHT22;7052;51.050;3.716;2023-04-21T14:38:13;19.10;38.50
13960;DHT22;7052;51.050;3.716;2023-04-21T14:40:40;19.20;38.40
13960;DHT22;7052;51.050;3.716;2023-04-21T14:43:09;19.30;38.50
13960;DHT22;7052;51.050;3.716;2023-04-21T14:45:36;19.20;41.30
13960;DHT22;7052;51.050;3.716;2023-04-21T14:48:06;19.00;41.40
13960;DHT22;7052;51.050;3.716;2023-04-21T14:50:33;19.00;41.80
13960;DHT22;7052;51.050;3.716;2023-04-21T14:53:01;19.00;41.70
13960;DHT22;7052;51.050;3.716;2023-04-21T14:55:45;18.90;41.40
13960;DHT22;7052;51.050;3.716;2023-04-21T14:58:17;18.80;40.50
13960;DHT22;7052;51.050;3.716;2023-04-21T15:00:54;18.70;40.50
13960;DHT22;7052;51.050;3.716;2023-04-21T15:03:23;18.80;40.00
13960;DHT22;7052;51.050;3.716;2023-04-21T15:05:54;18.90;39.80
13960;DHT22;7052;51.050;3.716;2023-04-21T15:08:34;18.90;40.10
13960;DHT22;7052;51.050;3.716;2023-04-21T15:11:04;19.00;39.60
13960;DHT22;7052;51.050;3.716;2023-04-21T15:13:39;18.90;39.40
13960;DHT22;7052;51.050;3.716;2023-04-21T15:16:22;19.00;39.30
13960;DHT22;7052;51.050;3.716;2023-04-21T15:18:50;19.00;39.50
13960;DHT22;7052;51.050;3.716;2023-04-21T15:21:28;19.00;39.10
13960;DHT22;7052;51.050;3.716;2023-04-21T15:23:57;18.90;38.80
13960;DHT22;7052;51.050;3.716;2023-04-21T15:26:24;18.90;39.00
13960;DHT22;7052;51.050;3.716;2023-04-21T15:29:05;18.80;38.70
13960;DHT22;7052;51.050;3.716;2023-04-21T15:31:36;18.80;38.30
13960;DHT22;7052;51.050;3.716;2023-04-21T15:34:17;18.80;37.50
13960;DHT22;7052;51.050;3.716;2023-04-21T15:36:54;18.80;37.40
13960;DHT22;7052;51.050;3.716;2023-04-21T15:39:22;18.90;37.80
13960;DHT22;7052;51.050;3.716;2023-04-21T15:41:50;18.90;37.50
13960;DHT22;7052;51.050;3.716;2023-04-21T15:44:22;18.90;37.20
13960;DHT22;7052;51.050;3.716;2023-04-21T15:46:50;18.70;37.40
13960;DHT22;7052;51.050;3.716;2023-04-21T15:49:17;18.50;37.70
13960;DHT22;7052;51.050;3.716;2023-04-21T15:51:44;18.40;37.20
13960;DHT22;7052;51.050;3.716;2023-04-21T15:54:12;18.20;37.80
13960;DHT22;7052;51.050;3.716;2023-04-21T15:56:42;18.00;38.50
13960;DHT22;7052;51.050;3.716;2023-04-21T15:59:10;17.80;38.90
13960;DHT22;7052;51.050;3.716;2023-04-21T16:08:14;17.90;39.00
13960;DHT22;7052;51.050;3.716;2023-04-21T16:10:41;17.90;39.30
13960;DHT22;7052;51.050;3.716;2023-04-21T16:13:08;17.80;39.30
13960;DHT22;7052;51.050;3.716;2023-04-21T16:15:39;17.80;39.80
13960;DHT22;7052;51.050;3.716;2023-04-21T16:18:06;17.70;39.70